createdAt,value
2023-04-22T00:00:00.239Z,8.2
2023-04-22T00:05:00.539Z,8.2
2023-04-22T00:10:00.240Z,8.3
2023-04-22T00:15:00.231Z,8.3
2023-04-22T00:20:00.265Z,8.2
2023-04-22T00:25:00.256Z,8.2
2023-04-22T00:30:00.235Z,8.1
2023-04-22T00:35:00.233Z,8.1
2023-04-22T00:40:00.238Z,8.0
2023-04-22T00:45:00.240Z,7.9
2023-04-22T00:50:00.221Z,7.8
2023-04-22T00:55:00.242Z,7.6
2023-04-22T01:00:00.298Z,7.5
2023-04-22T01:05:00.230Z,7.5
2023-04-22T01:10:00.311Z,7.4
2023-04-22T01:15:02.259Z,7.2
2023-04-22T01:20:00.227Z,7.2
2023-04-22T01:25:00.260Z,7.0
2023-04-22T01:30:00.236Z,7.0
2023-04-22T01:35:00.248Z,6.6
2023-04-22T01:40:00.253Z,6.4
2023-04-22T01:45:00.245Z,6.4
2023-04-22T01:50:00.241Z,6.6
2023-04-22T01:55:00.233Z,6.4
2023-04-22T02:00:00.285Z,6.2
2023-04-22T02:05:00.264Z,6.3
2023-04-22T02:10:00.251Z,6.3
2023-04-22T02:15:00.282Z,6.4
2023-04-22T02:20:00.316Z,6.1
2023-04-22T02:25:00.245Z,5.9
2023-04-22T02:30:00.258Z,5.6
2023-04-22T02:35:00.232Z,5.8
2023-04-22T02:40:00.263Z,6.2
2023-04-22T02:45:00.251Z,5.9
2023-04-22T02:50:00.259Z,5.7
2023-04-22T02:55:00.232Z,5.7
2023-04-22T03:00:00.269Z,5.7
2023-04-22T03:05:00.251Z,5.8
2023-04-22T03:10:00.237Z,5.7
2023-04-22T03:15:00.241Z,5.6
2023-04-22T03:20:00.242Z,5.7
2023-04-22T03:25:00.241Z,5.8
2023-04-22T03:30:00.260Z,5.8
2023-04-22T03:35:00.243Z,5.8
2023-04-22T03:40:00.240Z,6.1
2023-04-22T03:45:00.257Z,6.2
2023-04-22T03:50:00.238Z,6.0
2023-04-22T03:55:00.245Z,5.9
2023-04-22T04:00:00.257Z,5.9
2023-04-22T04:05:00.746Z,6.0
2023-04-22T04:10:00.236Z,5.9
2023-04-22T04:15:00.248Z,5.9
2023-04-22T04:20:00.246Z,6.1
2023-04-22T04:25:00.249Z,6.1
2023-04-22T04:30:00.285Z,6.1
2023-04-22T04:35:00.235Z,6.1
2023-04-22T04:40:00.260Z,6.2
2023-04-22T04:45:00.235Z,6.2
2023-04-22T04:50:00.223Z,6.1
2023-04-22T04:55:00.231Z,6.2
2023-04-22T05:00:00.234Z,6.3
2023-04-22T05:05:00.350Z,6.5
2023-04-22T05:10:00.247Z,6.5
2023-04-22T05:15:00.257Z,6.5
2023-04-22T05:20:00.253Z,6.7
2023-04-22T05:25:00.234Z,6.8
2023-04-22T05:30:00.239Z,6.9
2023-04-22T05:35:00.247Z,7.0
2023-04-22T05:40:00.248Z,7.0
2023-04-22T05:45:00.244Z,7.1
2023-04-22T05:50:00.235Z,7.2
2023-04-22T05:55:00.268Z,7.3
2023-04-22T06:00:00.277Z,7.4
2023-04-22T06:05:00.502Z,7.5
2023-04-22T06:10:05.116Z,7.6
2023-04-22T06:15:00.251Z,7.7
2023-04-22T06:20:00.244Z,7.9
2023-04-22T06:25:00.258Z,7.9
2023-04-22T06:30:00.232Z,8.0
2023-04-22T06:35:00.241Z,8.2
2023-04-22T06:40:00.253Z,8.3
2023-04-22T06:45:00.230Z,8.6
2023-04-22T06:50:00.232Z,8.6
2023-04-22T06:55:00.295Z,8.7
2023-04-22T07:00:00.238Z,8.8
2023-04-22T07:05:00.242Z,9.0
2023-04-22T07:10:00.230Z,9.3
2023-04-22T07:15:00.235Z,9.9
2023-04-22T07:20:00.229Z,10.5
2023-04-22T07:25:00.247Z,10.9
2023-04-22T07:30:00.237Z,11.6
2023-04-22T07:35:00.232Z,12.2
2023-04-22T07:40:00.228Z,12.2
2023-04-22T07:45:00.243Z,12.4
2023-04-22T07:50:00.263Z,12.5
2023-04-22T07:55:00.228Z,12.7
2023-04-22T08:00:00.228Z,13.1
2023-04-22T08:05:00.273Z,13.7
2023-04-22T08:10:00.235Z,13.9
2023-04-22T08:15:00.241Z,13.8
2023-04-22T08:20:00.252Z,14.3
2023-04-22T08:25:00.235Z,14.8
2023-04-22T08:30:00.237Z,14.5
2023-04-22T08:35:04.730Z,14.8
2023-04-22T08:40:00.243Z,15.2
2023-04-22T08:45:00.320Z,15.1
2023-04-22T08:50:00.458Z,14.9
2023-04-22T08:55:00.399Z,14.6
2023-04-22T09:00:00.416Z,15.0
2023-04-22T09:05:00.414Z,15.5
2023-04-22T09:10:00.390Z,15.4
2023-04-22T09:15:00.384Z,16.2
2023-04-22T09:20:00.435Z,16.3
2023-04-22T09:25:00.396Z,16.0
2023-04-22T09:30:00.386Z,16.5
2023-04-22T09:35:00.428Z,16.1
2023-04-22T09:40:00.416Z,16.7
2023-04-22T09:45:02.024Z,16.7
2023-04-22T09:50:00.407Z,17.4
2023-04-22T09:55:00.453Z,17.5
2023-04-22T10:00:00.409Z,17.7
2023-04-22T10:05:00.400Z,18.0
2023-04-22T10:10:00.389Z,17.7
2023-04-22T10:15:00.414Z,18.3
2023-04-22T10:20:00.396Z,18.4
2023-04-22T10:25:00.468Z,18.0
2023-04-22T10:30:00.379Z,17.9
2023-04-22T10:35:00.391Z,17.5
2023-04-22T10:40:00.386Z,17.7
2023-04-22T10:45:00.375Z,18.1
2023-04-22T10:50:00.397Z,18.0
2023-04-22T10:55:00.426Z,19.0
2023-04-22T11:00:00.393Z,18.4
2023-04-22T11:05:00.388Z,17.8
2023-04-22T11:10:00.438Z,17.9
2023-04-22T11:15:00.429Z,18.1
2023-04-22T11:20:00.425Z,18.2
2023-04-22T11:25:00.405Z,18.4
2023-04-22T11:30:00.397Z,18.3
2023-04-22T11:35:00.399Z,18.2
2023-04-22T11:40:13.724Z,18.5
2023-04-22T11:45:00.401Z,18.9
2023-04-22T11:50:00.401Z,18.5
2023-04-22T11:55:00.401Z,18.6
2023-04-22T12:00:00.388Z,18.5
2023-04-22T12:05:00.470Z,18.4
2023-04-22T12:10:00.396Z,18.5
2023-04-22T12:15:00.405Z,18.1
2023-04-22T12:20:00.445Z,17.9
2023-04-22T12:25:00.417Z,18.0
2023-04-22T12:30:00.403Z,17.9
2023-04-22T12:35:00.416Z,17.8
2023-04-22T12:40:00.431Z,17.7
2023-04-22T12:45:00.415Z,17.5
2023-04-22T12:50:00.424Z,17.4
2023-04-22T12:55:00.394Z,17.4
2023-04-22T13:00:00.420Z,17.4
2023-04-22T13:05:00.445Z,17.4
2023-04-22T13:10:00.412Z,17.2
2023-04-22T13:15:00.390Z,17.0
2023-04-22T13:20:00.398Z,16.7
2023-04-22T13:25:00.395Z,16.8
2023-04-22T13:30:00.452Z,16.6
2023-04-22T13:35:02.874Z,16.5
2023-04-22T13:40:00.478Z,16.3
2023-04-22T13:45:00.401Z,15.9
2023-04-22T13:50:00.390Z,15.6
2023-04-22T13:55:00.420Z,15.2
2023-04-22T14:00:00.421Z,15.0
2023-04-22T14:05:00.398Z,14.8
2023-04-22T14:10:00.401Z,14.4
2023-04-22T14:15:00.407Z,14.2
2023-04-22T14:20:00.409Z,14.0
2023-04-22T14:25:00.403Z,13.9
2023-04-22T14:30:00.389Z,13.8
2023-04-22T14:35:00.389Z,13.7
2023-04-22T14:40:00.456Z,13.6
2023-04-22T14:45:00.422Z,13.8
2023-04-22T14:50:00.425Z,13.8
2023-04-22T14:55:08.611Z,13.6
2023-04-22T15:00:00.469Z,13.7
2023-04-22T15:05:00.396Z,13.8
2023-04-22T15:10:00.413Z,13.9
2023-04-22T15:15:00.399Z,14.0
2023-04-22T15:20:00.399Z,14.0
2023-04-22T15:25:00.395Z,14.0
2023-04-22T15:30:00.390Z,13.9
2023-04-22T15:35:00.394Z,13.9
2023-04-22T15:40:00.413Z,13.9
2023-04-22T15:45:00.387Z,13.8
2023-04-22T15:50:00.394Z,13.8
2023-04-22T15:55:00.397Z,13.8
2023-04-22T16:00:10.005Z,13.8
2023-04-22T16:05:00.416Z,13.6
2023-04-22T16:10:00.475Z,13.6
2023-04-22T16:15:00.400Z,13.6
2023-04-22T16:20:00.474Z,13.5
2023-04-22T16:25:00.395Z,13.5
2023-04-22T16:30:00.403Z,13.4
2023-04-22T16:35:00.402Z,13.4
2023-04-22T16:40:00.394Z,13.3
2023-04-22T16:45:00.399Z,13.3
2023-04-22T16:50:00.393Z,13.2
2023-04-22T16:55:00.411Z,13.1
2023-04-22T17:00:00.399Z,13.1
2023-04-22T17:05:00.394Z,13.0
2023-04-22T17:10:00.393Z,13.0
2023-04-22T17:15:00.405Z,13.0
2023-04-22T17:20:00.399Z,12.8
2023-04-22T17:25:00.395Z,12.7
2023-04-22T17:30:00.402Z,11.5
2023-04-22T17:35:00.440Z,10.8
2023-04-22T17:40:00.433Z,10.6
2023-04-22T17:45:00.405Z,10.5
2023-04-22T17:50:00.400Z,10.3
2023-04-22T17:55:00.401Z,10.1
2023-04-22T18:00:00.400Z,10.1
2023-04-22T18:05:00.444Z,10.1
2023-04-22T18:10:00.486Z,10.1
2023-04-22T18:15:00.396Z,10.1
2023-04-22T18:20:14.010Z,10.1
2023-04-22T18:25:00.400Z,10.0
2023-04-22T18:30:00.389Z,9.9
2023-04-22T18:35:00.408Z,9.9
2023-04-22T18:40:00.417Z,9.9
2023-04-22T18:45:01.934Z,9.9
2023-04-22T18:50:00.407Z,9.7
2023-04-22T18:55:00.390Z,9.7
2023-04-22T19:00:00.404Z,9.6
2023-04-22T19:05:00.411Z,9.7
2023-04-22T19:10:00.399Z,9.6
2023-04-22T19:15:00.402Z,9.6
2023-04-22T19:20:00.393Z,9.5
2023-04-22T19:25:00.406Z,9.6
2023-04-22T19:30:00.460Z,9.6
2023-04-22T19:35:02.518Z,9.6
2023-04-22T19:40:00.399Z,9.6
2023-04-22T19:45:00.457Z,9.5
2023-04-22T19:50:00.393Z,9.4
2023-04-22T19:55:00.394Z,9.5
2023-04-22T20:00:00.392Z,9.4
2023-04-22T20:05:00.398Z,9.3
2023-04-22T20:10:00.379Z,9.3
2023-04-22T20:15:00.399Z,9.2
2023-04-22T20:20:00.458Z,9.2
2023-04-22T20:25:00.413Z,9.1
2023-04-22T20:30:00.419Z,9.0
2023-04-22T20:35:00.411Z,9.1
2023-04-22T20:40:00.383Z,9.1
2023-04-22T20:45:00.415Z,9.0
2023-04-22T20:50:00.478Z,8.9
2023-04-22T20:55:00.394Z,8.9
2023-04-22T21:00:00.394Z,8.8
2023-04-22T21:05:00.425Z,8.7
2023-04-22T21:10:00.384Z,8.7
2023-04-22T21:15:00.468Z,8.6
2023-04-22T21:20:00.423Z,8.5
2023-04-22T21:25:00.402Z,8.5
2023-04-22T21:30:00.405Z,8.4
2023-04-22T21:35:00.410Z,8.3
2023-04-22T21:40:00.393Z,8.3
2023-04-22T21:45:00.393Z,8.2
2023-04-22T21:50:00.388Z,8.2
2023-04-22T21:55:00.395Z,8.2
2023-04-22T22:00:00.394Z,8.1
2023-04-22T22:05:00.390Z,8.1
2023-04-22T22:10:00.436Z,8.1
2023-04-22T22:15:00.422Z,8.1
2023-04-22T22:20:00.396Z,8.0
2023-04-22T22:25:00.500Z,8.0
2023-04-22T22:30:00.415Z,7.9
2023-04-22T22:35:00.390Z,7.9
2023-04-22T22:40:00.486Z,8.0
2023-04-22T22:45:00.395Z,7.9
2023-04-22T22:50:00.417Z,7.9
2023-04-22T22:55:00.388Z,7.9
2023-04-22T23:00:00.409Z,7.9
2023-04-22T23:05:00.398Z,7.9
2023-04-22T23:10:00.387Z,7.9
2023-04-22T23:15:00.402Z,8.1
2023-04-22T23:20:00.390Z,8.1
2023-04-22T23:25:00.388Z,8.2
2023-04-22T23:30:00.393Z,8.2
2023-04-22T23:35:00.395Z,8.2
2023-04-22T23:40:00.396Z,8.3
2023-04-22T23:45:00.436Z,8.3
2023-04-22T23:50:00.415Z,8.3
2023-04-22T23:55:00.393Z,8.3
